Wetterdaten: Woche 01.02.10 - 07.02.10 (KW5)
Datum Zeit Temp. A. Feuchte A. Luftdruck Regen Wind Richtung Taupunkt Windchill Windben
01.02.2010 00:00 -3,2 C 93 % 1010,2 hPa 0,0 l/m 0,0 km/h O -4,2 C -3,2 C 0,0 km/h
01.02.2010 01:00 -3,6 C 93 % 1010,3 hPa 0,0 l/m 0,0 km/h O -4,6 C -3,6 C 0,0 km/h
01.02.2010 02:00 -4,0 C 93 % 1010,4 hPa 0,0 l/m 0,0 km/h O -5,0 C -4,0 C 0,0 km/h
01.02.2010 03:00 -4,1 C 93 % 1010,4 hPa 0,0 l/m 0,0 km/h O -5,1 C -4,1 C 0,0 km/h
01.02.2010 04:00 -4,4 C 93 % 1010,8 hPa 0,0 l/m 0,0 km/h O -5,4 C -4,4 C 0,0 km/h
01.02.2010 05:00 -4,5 C 93 % 1010,9 hPa 0,0 l/m 0,0 km/h O -5,5 C -4,5 C 0,0 km/h
01.02.2010 06:00 -4,6 C 93 % 1011,3 hPa 0,0 l/m 0,0 km/h S -5,6 C -4,6 C 0,0 km/h
01.02.2010 07:00 -2,5 C 90 % 1011,5 hPa 0,0 l/m 0,0 km/h S -3,9 C -2,5 C 0,0 km/h
01.02.2010 08:00 -2,1 C 85 % 1011,5 hPa 0,0 l/m 0,0 km/h S -4,3 C -2,1 C 0,0 km/h
01.02.2010 09:00 -1,0 C 75 % 1011,8 hPa 0,0 l/m 19,8 km/h S-SW -4,9 C -10,8 C 19,8 km/h
01.02.2010 10:00 -0,5 C 71 % 1011,8 hPa 0,0 l/m 14,0 km/h SW -5,1 C -7,0 C 14,0 km/h
01.02.2010 11:00 0,1 C 68 % 1011,5 hPa 0,0 l/m 11,5 km/h S -5,1 C -4,5 C 11,5 km/h
01.02.2010 12:00 0,4 C 66 % 1011,2 hPa 0,0 l/m 13,7 km/h W-SW -5,2 C -5,7 C 13,7 km/h
01.02.2010 13:00 -0,4 C 68 % 1011,3 hPa 0,0 l/m 16,6 km/h W-SW -5,6 C -8,4 C 16,6 km/h
01.02.2010 14:00 -0,4 C 71 % 1011,8 hPa 0,0 l/m 24,1 km/h W-SW -5,0 C -11,9 C 24,1 km/h
01.02.2010 15:00 -0,8 C 80 % 1012,8 hPa 0,0 l/m 18,7 km/h SW -3,8 C -10,0 C 18,7 km/h
01.02.2010 16:00 -0,8 C 82 % 1013,8 hPa 0,0 l/m 29,5 km/h S-SW -3,5 C -14,4 C 29,5 km/h
01.02.2010 17:00 -1,0 C 83 % 1014,3 hPa 0,0 l/m 22,3 km/h SW -3,5 C -12,0 C 22,3 km/h
01.02.2010 18:00 -0,8 C 84 % 1015,1 hPa 0,0 l/m 15,8 km/h SW -3,2 C -8,4 C 15,8 km/h
01.02.2010 19:00 -0,8 C 85 % 1015,8 hPa 0,0 l/m 25,9 km/h SW -3,0 C -13,1 C 25,9 km/h
01.02.2010 20:00 -0,7 C 85 % 1016,2 hPa 0,0 l/m 14,8 km/h SW -2,9 C -7,7 C 14,8 km/h
01.02.2010 21:00 -0,6 C 86 % 1016,4 hPa 0,0 l/m 17,3 km/h SW -2,6 C -9,0 C 17,3 km/h
01.02.2010 22:00 -0,4 C 85 % 1016,8 hPa 0,0 l/m 19,1 km/h SW -2,6 C -9,7 C 19,1 km/h
01.02.2010 23:00 -0,3 C 84 % 1017,1 hPa 0,0 l/m 19,1 km/h SW -2,7 C -9,6 C 19,1 km/h
02.02.2010 00:00 -0,6 C 86 % 1017,9 hPa 0,0 l/m 12,2 km/h SW -2,6 C -5,8 C 12,2 km/h
02.02.2010 01:00 -0,4 C 86 % 1018,3 hPa 0,0 l/m 20,2 km/h SW -2,4 C -10,2 C 20,2 km/h
02.02.2010 02:00 -0,2 C 85 % 1018,6 hPa 0,0 l/m 16,9 km/h SW -2,4 C -8,3 C 16,9 km/h
02.02.2010 03:00 -0,1 C 85 % 1019,0 hPa 0,0 l/m 21,2 km/h S -2,3 C -10,3 C 21,2 km/h
02.02.2010 04:00 -0,1 C 84 % 1018,5 hPa 0,0 l/m 11,5 km/h S-SW -2,5 C -4,7 C 11,5 km/h
02.02.2010 05:00 0,2 C 82 % 1018,8 hPa 0,0 l/m 17,3 km/h S-SW -2,5 C -8,0 C 17,3 km/h
02.02.2010 06:00 0,1 C 82 % 1019,0 hPa 0,0 l/m 19,8 km/h S-SW -2,6 C -9,4 C 19,8 km/h
02.02.2010 07:00 0,1 C 80 % 1018,7 hPa 0,0 l/m 9,7 km/h S-SW -2,9 C -3,1 C 9,7 km/h
02.02.2010 08:00 0,2 C 79 % 1018,5 hPa 0,0 l/m 14,0 km/h S-SW -3,0 C -6,1 C 14,0 km/h
02.02.2010 09:00 1,3 C 76 % 1018,3 hPa 0,0 l/m 12,2 km/h S-SW -2,5 C -3,6 C 12,2 km/h
02.02.2010 10:00 2,2 C 75 % 1017,9 hPa 0,0 l/m 14,8 km/h S-SW -1,8 C -4,2 C 14,8 km/h
02.02.2010 11:00 2,8 C 73 % 1017,3 hPa 0,0 l/m 23,0 km/h S -1,5 C -7,2 C 23,0 km/h
02.02.2010 12:00 2,9 C 74 % 1016,4 hPa 0,0 l/m 11,2 km/h S-SW -1,3 C -1,1 C 11,2 km/h
02.02.2010 13:00 3,0 C 72 % 1015,6 hPa 0,4 l/m 20,2 km/h S-SW -1,5 C -5,8 C 20,2 km/h
02.02.2010 14:00 2,9 C 74 % 1014,8 hPa 0,4 l/m 19,8 km/h S -1,3 C -5,8 C 19,8 km/h
02.02.2010 15:00 3,0 C 77 % 1014,0 hPa 0,4 l/m 18,0 km/h S -0,6 C -4,9 C 18,0 km/h
02.02.2010 16:00 2,7 C 78 % 1013,6 hPa 0,4 l/m 11,5 km/h SW -0,7 C -1,6 C 11,5 km/h
02.02.2010 17:00 2,9 C 75 % 1013,6 hPa 0,0 l/m 22,0 km/h SW -1,1 C -6,7 C 22,0 km/h
02.02.2010 18:00 3,1 C 72 % 1012,9 hPa 0,0 l/m 19,4 km/h SW -1,4 C -5,4 C 19,4 km/h
02.02.2010 19:00 3,4 C 70 % 1012,3 hPa 0,0 l/m 14,8 km/h W-SW -1,5 C -2,8 C 14,8 km/h
02.02.2010 20:00 3,4 C 73 % 1011,3 hPa 0,0 l/m 20,2 km/h W-SW -1,0 C -5,3 C 20,2 km/h
02.02.2010 21:00 3,4 C 77 % 1010,9 hPa 0,4 l/m 29,2 km/h S -0,2 C -8,4 C 29,2 km/h
02.02.2010 22:00 3,4 C 81 % 1010,5 hPa 0,0 l/m 28,1 km/h S 0,5 C -8,1 C 28,1 km/h
02.02.2010 23:00 3,6 C 82 % 1010,3 hPa 0,0 l/m 32,8 km/h SW 0,8 C -9,1 C 32,8 km/h
03.02.2010 00:00 3,6 C 82 % 1010,0 hPa 0,0 l/m 23,0 km/h S-SW 0,8 C -6,1 C 23,0 km/h
03.02.2010 01:00 3,8 C 83 % 1010,0 hPa 0,0 l/m 23,8 km/h SW 1,2 C -6,2 C 23,8 km/h
03.02.2010 02:00 3,8 C 83 % 1009,7 hPa 0,0 l/m 22,7 km/h S-SW 1,2 C -5,8 C 22,7 km/h
03.02.2010 03:00 3,9 C 83 % 1008,8 hPa 0,0 l/m 18,0 km/h SW 1,3 C -3,7 C 18,0 km/h
03.02.2010 04:00 3,8 C 84 % 1008,9 hPa 0,0 l/m 30,6 km/h SW 1,4 C -8,2 C 30,6 km/h
03.02.2010 05:00 3,5 C 86 % 1009,4 hPa 0,0 l/m 26,6 km/h S-SW 1,4 C -7,5 C 26,6 km/h
03.02.2010 06:00 3,4 C 87 % 1009,7 hPa 0,0 l/m 40,0 km/h SW 1,4 C -10,9 C 40,0 km/h
03.02.2010 07:00 3,8 C 85 % 1009,7 hPa 0,0 l/m 26,6 km/h SW 1,5 C -7,1 C 26,6 km/h
03.02.2010 08:00 4,0 C 84 % 1010,1 hPa 0,0 l/m 24,5 km/h SW 1,5 C -6,1 C 24,5 km/h
03.02.2010 09:00 4,4 C 83 % 1010,6 hPa 0,0 l/m 15,1 km/h S-SW 1,8 C -1,7 C 15,1 km/h
03.02.2010 10:00 4,9 C 82 % 1011,4 hPa 0,0 l/m 21,6 km/h S-SW 2,1 C -3,9 C 21,6 km/h
03.02.2010 11:00 5,1 C 81 % 1012,1 hPa 0,0 l/m 36,0 km/h W-SW 2,1 C -7,6 C 36,0 km/h
03.02.2010 12:00 5,3 C 81 % 1013,2 hPa 0,0 l/m 25,6 km/h S-SW 2,3 C -4,7 C 25,6 km/h
03.02.2010 13:00 6,4 C 80 % 1012,9 hPa 0,0 l/m 25,6 km/h SW 3,2 C -3,2 C 25,6 km/h
03.02.2010 14:00 6,2 C 80 % 1013,0 hPa 0,0 l/m 32,0 km/h W-SW 3,0 C -5,2 C 32,0 km/h
03.02.2010 15:00 5,9 C 81 % 1013,4 hPa 0,0 l/m 24,1 km/h SW 2,9 C -3,4 C 24,1 km/h
03.02.2010 16:00 6,3 C 79 % 1014,0 hPa 0,0 l/m 31,7 km/h SW 2,9 C -5,0 C 31,7 km/h
03.02.2010 17:00 5,6 C 81 % 1014,7 hPa 0,0 l/m 19,4 km/h W-SW 2,6 C -2,2 C 19,4 km/h
03.02.2010 18:00 5,3 C 83 % 1015,1 hPa 0,0 l/m 7,9 km/h SW 2,7 C 4,0 C 7,9 km/h
03.02.2010 19:00 5,4 C 83 % 1015,4 hPa 0,0 l/m 13,3 km/h S-SW 2,7 C 0,5 C 13,3 km/h
03.02.2010 20:00 5,6 C 82 % 1015,1 hPa 0,0 l/m 11,5 km/h S-SW 2,8 C 1,8 C 11,5 km/h
03.02.2010 21:00 5,9 C 81 % 1015,4 hPa 0,0 l/m 0,0 km/h S-SO 2,9 C 5,9 C 0,0 km/h
03.02.2010 22:00 5,2 C 81 % 1015,5 hPa 0,0 l/m 0,0 km/h NO 2,2 C 5,2 C 0,0 km/h
03.02.2010 23:00 4,2 C 84 % 1015,2 hPa 0,0 l/m 0,0 km/h NO 1,7 C 4,2 C 0,0 km/h
04.02.2010 00:00 1,9 C 88 % 1015,0 hPa 0,0 l/m 0,0 km/h NO 0,1 C 1,9 C 0,0 km/h
04.02.2010 01:00 1,0 C 91 % 1014,8 hPa 0,0 l/m 0,0 km/h O-NO -0,3 C 1,0 C 0,0 km/h
04.02.2010 02:00 0,9 C 92 % 1014,5 hPa 0,0 l/m 0,0 km/h SO -0,2 C 0,9 C 0,0 km/h
04.02.2010 03:00 0,1 C 92 % 1014,4 hPa 0,0 l/m 0,0 km/h SO -1,0 C 0,1 C 0,0 km/h
04.02.2010 04:00 -0,1 C 93 % 1014,3 hPa 0,0 l/m 0,0 km/h NO -1,1 C -0,1 C 0,0 km/h
04.02.2010 05:00 0,0 C 93 % 1014,0 hPa 0,0 l/m 0,0 km/h O-SO -1,0 C 0,0 C 0,0 km/h
04.02.2010 06:00 -0,1 C 94 % 1013,8 hPa 0,0 l/m 0,0 km/h SO -0,9 C -0,1 C 0,0 km/h
04.02.2010 07:00 0,1 C 94 % 1013,2 hPa 0,0 l/m 0,0 km/h O-NO -0,7 C 0,1 C 0,0 km/h
04.02.2010 08:00 1,0 C 94 % 1013,5 hPa 0,0 l/m 0,0 km/h N 0,1 C 1,0 C 0,0 km/h
04.02.2010 09:00 3,9 C 92 % 1013,2 hPa 0,0 l/m 0,0 km/h NO 2,7 C 3,9 C 0,0 km/h
04.02.2010 10:00 9,1 C 75 % 1013,0 hPa 0,0 l/m 0,0 km/h W 4,9 C 9,1 C 0,0 km/h
04.02.2010 11:00 10,4 C 69 % 1012,8 hPa 0,0 l/m 0,0 km/h NW 5,0 C 10,4 C 0,0 km/h
04.02.2010 12:00 10,9 C 65 % 1012,0 hPa 0,0 l/m 0,0 km/h SW 4,6 C 10,9 C 0,0 km/h
04.02.2010 13:00 11,1 C 64 % 1011,2 hPa 0,0 l/m 0,0 km/h W 4,6 C 11,1 C 0,0 km/h
04.02.2010 14:00 13,1 C 59 % 1010,6 hPa 0,0 l/m 1,1 km/h W-NW 5,3 C 13,1 C 1,1 km/h
04.02.2010 15:00 12,4 C 59 % 1010,4 hPa 0,0 l/m 0,0 km/h W-NW 4,6 C 12,4 C 0,0 km/h
04.02.2010 16:00 9,3 C 67 % 1010,2 hPa 0,0 l/m 0,0 km/h O-SO 3,5 C 9,3 C 0,0 km/h
04.02.2010 17:00 4,8 C 80 % 1010,2 hPa 0,0 l/m 0,0 km/h O-NO 1,6 C 4,8 C 0,0 km/h
04.02.2010 18:00 3,1 C 84 % 1010,2 hPa 0,0 l/m 0,0 km/h O-SO 0,7 C 3,1 C 0,0 km/h
04.02.2010 19:00 1,8 C 88 % 1010,1 hPa 0,0 l/m 0,0 km/h O-SO 0,0 C 1,8 C 0,0 km/h
04.02.2010 20:00 1,3 C 90 % 1009,8 hPa 0,0 l/m 0,0 km/h NO -0,2 C 1,3 C 0,0 km/h
04.02.2010 21:00 1,2 C 90 % 1009,7 hPa 0,0 l/m 0,0 km/h O-SO -0,3 C 1,2 C 0,0 km/h
04.02.2010 22:00 0,8 C 90 % 1009,3 hPa 0,0 l/m 0,0 km/h O-NO -0,6 C 0,8 C 0,0 km/h
04.02.2010 23:00 1,1 C 91 % 1008,9 hPa 0,0 l/m 0,0 km/h SO -0,2 C 1,1 C 0,0 km/h
05.02.2010 00:00 1,8 C 90 % 1008,5 hPa 0,0 l/m 0,0 km/h NO 0,3 C 1,8 C 0,0 km/h
05.02.2010 01:00 1,1 C 90 % 1008,1 hPa 0,0 l/m 0,0 km/h S-SW -0,4 C 1,1 C 0,0 km/h
05.02.2010 02:00 1,9 C 89 % 1007,8 hPa 0,0 l/m 10,4 km/h NO 0,3 C -1,7 C 10,4 km/h
05.02.2010 03:00 1,5 C 89 % 1007,7 hPa 0,0 l/m 0,0 km/h O -0,1 C 1,5 C 0,0 km/h
05.02.2010 04:00 1,2 C 90 % 1006,9 hPa 0,0 l/m 0,0 km/h O-NO -0,3 C 1,2 C 0,0 km/h
05.02.2010 05:00 1,3 C 90 % 1006,5 hPa 0,0 l/m 0,0 km/h O-NO -0,2 C 1,3 C 0,0 km/h
05.02.2010 06:00 1,3 C 91 % 1006,5 hPa 0,0 l/m 0,0 km/h S-SO -0,0 C 1,3 C 0,0 km/h
05.02.2010 07:00 1,8 C 90 % 1006,6 hPa 0,0 l/m 0,0 km/h O-NO 0,3 C 1,8 C 0,0 km/h
05.02.2010 08:00 2,3 C 89 % 1006,3 hPa 0,0 l/m 0,0 km/h O 0,7 C 2,3 C 0,0 km/h
05.02.2010 09:00 2,9 C 91 % 1006,2 hPa 0,4 l/m 0,0 km/h O-NO 1,6 C 2,9 C 0,0 km/h
05.02.2010 10:00 3,9 C 92 % 1005,9 hPa 0,4 l/m 0,0 km/h S-SO 2,7 C 3,9 C 0,0 km/h
05.02.2010 11:00 5,0 C 90 % 1005,9 hPa 0,0 l/m 0,4 km/h O-SO 3,5 C 5,0 C 0,4 km/h
05.02.2010 12:00 5,8 C 89 % 1005,4 hPa 0,0 l/m 0,0 km/h S-SO 4,1 C 5,8 C 0,0 km/h
05.02.2010 13:00 6,1 C 91 % 1005,4 hPa 0,0 l/m 0,0 km/h SO 4,7 C 6,1 C 0,0 km/h
05.02.2010 14:00 6,4 C 92 % 1005,6 hPa 0,7 l/m 0,0 km/h S 5,2 C 6,4 C 0,0 km/h
05.02.2010 15:00 6,4 C 93 % 1006,0 hPa 0,4 l/m 0,0 km/h S 5,4 C 6,4 C 0,0 km/h
05.02.2010 16:00 6,2 C 93 % 1006,6 hPa 0,7 l/m 0,0 km/h W 5,2 C 6,2 C 0,0 km/h
05.02.2010 17:00 5,8 C 93 % 1007,2 hPa 0,4 l/m 0,0 km/h W-SW 4,8 C 5,8 C 0,0 km/h
05.02.2010 18:00 5,6 C 94 % 1008,0 hPa 1,1 l/m 1,4 km/h SW 4,7 C 5,6 C 1,4 km/h
05.02.2010 19:00 5,5 C 94 % 1008,6 hPa 0,7 l/m 2,9 km/h W 4,6 C 5,5 C 2,9 km/h
05.02.2010 20:00 5,3 C 94 % 1009,2 hPa 0,4 l/m 0,0 km/h N 4,4 C 5,3 C 0,0 km/h
05.02.2010 21:00 5,1 C 94 % 1009,7 hPa 0,4 l/m 0,0 km/h N 4,2 C 5,1 C 0,0 km/h
05.02.2010 22:00 4,9 C 94 % 1010,1 hPa 0,0 l/m 0,0 km/h SW 4,0 C 4,9 C 0,0 km/h
05.02.2010 23:00 5,3 C 94 % 1010,4 hPa 0,0 l/m 6,8 km/h W-SW 4,4 C 5,0 C 6,8 km/h
06.02.2010 00:00 4,2 C 94 % 1010,6 hPa 0,0 l/m 0,0 km/h W-SW 3,3 C 4,2 C 0,0 km/h
06.02.2010 01:00 3,5 C 94 % 1010,9 hPa 0,0 l/m 0,0 km/h NO 2,6 C 3,5 C 0,0 km/h
06.02.2010 02:00 3,3 C 94 % 1010,8 hPa 0,0 l/m 0,0 km/h O-SO 2,4 C 3,3 C 0,0 km/h
06.02.2010 03:00 3,3 C 95 % 1010,5 hPa 0,0 l/m 0,0 km/h NO 2,6 C 3,3 C 0,0 km/h
06.02.2010 04:00 3,3 C 95 % 1010,4 hPa 0,0 l/m 0,0 km/h O-SO 2,6 C 3,3 C 0,0 km/h
06.02.2010 05:00 2,3 C 95 % 1009,7 hPa 0,0 l/m 0,0 km/h SO 1,6 C 2,3 C 0,0 km/h
06.02.2010 06:00 1,4 C 95 % 1009,2 hPa 0,0 l/m 0,0 km/h NO 0,7 C 1,4 C 0,0 km/h
06.02.2010 07:00 1,8 C 95 % 1008,6 hPa 0,0 l/m 1,1 km/h O-SO 1,1 C 1,8 C 1,1 km/h
06.02.2010 08:00 2,4 C 95 % 1008,3 hPa 0,0 l/m 0,0 km/h O-SO 1,7 C 2,4 C 0,0 km/h
06.02.2010 09:00 3,9 C 95 % 1008,5 hPa 0,0 l/m 0,0 km/h W-NW 3,2 C 3,9 C 0,0 km/h
06.02.2010 10:00 8,4 C 86 % 1008,9 hPa 0,0 l/m 0,0 km/h N 6,2 C 8,4 C 0,0 km/h
06.02.2010 11:00 10,1 C 78 % 1009,3 hPa 0,0 l/m 0,0 km/h N-NW 6,4 C 10,1 C 0,0 km/h
06.02.2010 12:00 11,2 C 75 % 1009,0 hPa 0,0 l/m 0,0 km/h W 6,9 C 11,2 C 0,0 km/h
06.02.2010 13:00 10,6 C 72 % 1009,1 hPa 0,0 l/m 2,9 km/h NW 5,8 C 10,6 C 2,9 km/h
06.02.2010 14:00 11,2 C 69 % 1009,2 hPa 0,0 l/m 5,4 km/h W 5,7 C 11,2 C 5,4 km/h
06.02.2010 15:00 9,4 C 74 % 1009,7 hPa 0,0 l/m 3,6 km/h NW 5,0 C 9,4 C 3,6 km/h
06.02.2010 16:00 7,7 C 79 % 1010,4 hPa 0,0 l/m 0,0 km/h W-NW 4,3 C 7,7 C 0,0 km/h
06.02.2010 17:00 6,1 C 86 % 1010,9 hPa 0,0 l/m 0,0 km/h W 3,9 C 6,1 C 0,0 km/h
06.02.2010 18:00 4,3 C 91 % 1011,6 hPa 0,0 l/m 0,0 km/h S-SW 3,0 C 4,3 C 0,0 km/h
06.02.2010 19:00 3,6 C 92 % 1012,2 hPa 0,0 l/m 0,0 km/h SO 2,4 C 3,6 C 0,0 km/h
06.02.2010 20:00 2,1 C 92 % 1012,8 hPa 0,0 l/m 0,0 km/h O-NO 0,9 C 2,1 C 0,0 km/h
06.02.2010 21:00 2,7 C 93 % 1013,5 hPa 0,0 l/m 0,0 km/h O-NO 1,7 C 2,7 C 0,0 km/h
06.02.2010 22:00 2,6 C 94 % 1014,3 hPa 0,0 l/m 0,0 km/h O-SO 1,7 C 2,6 C 0,0 km/h
06.02.2010 23:00 2,7 C 94 % 1014,8 hPa 0,0 l/m 0,0 km/h O-NO 1,8 C 2,7 C 0,0 km/h
07.02.2010 00:00 2,7 C 94 % 1015,1 hPa 0,0 l/m 0,0 km/h O-NO 1,8 C 2,7 C 0,0 km/h
07.02.2010 01:00 2,8 C 94 % 1015,7 hPa 0,0 l/m 0,0 km/h O-SO 1,9 C 2,8 C 0,0 km/h
07.02.2010 02:00 2,6 C 93 % 1015,9 hPa 0,0 l/m 0,0 km/h SO 1,6 C 2,6 C 0,0 km/h
07.02.2010 03:00 2,7 C 93 % 1015,7 hPa 0,0 l/m 0,0 km/h SO 1,7 C 2,7 C 0,0 km/h
07.02.2010 04:00 2,6 C 93 % 1015,9 hPa 0,0 l/m 0,0 km/h SO 1,6 C 2,6 C 0,0 km/h
07.02.2010 05:00 2,7 C 93 % 1016,1 hPa 0,0 l/m 0,0 km/h SO 1,7 C 2,7 C 0,0 km/h
07.02.2010 06:00 2,6 C 93 % 1016,2 hPa 0,0 l/m 0,0 km/h N-NO 1,6 C 2,6 C 0,0 km/h
07.02.2010 07:00 2,8 C 94 % 1016,4 hPa 0,4 l/m 0,0 km/h S-SO 1,9 C 2,8 C 0,0 km/h
07.02.2010 08:00 2,9 C 94 % 1016,7 hPa 0,0 l/m 0,0 km/h N 2,0 C 2,9 C 0,0 km/h
07.02.2010 09:00 3,4 C 94 % 1016,9 hPa 0,0 l/m 0,0 km/h N-NO 2,5 C 3,4 C 0,0 km/h
07.02.2010 10:00 3,8 C 93 % 1016,9 hPa 0,0 l/m 0,0 km/h N-NO 2,8 C 3,8 C 0,0 km/h
07.02.2010 11:00 4,1 C 92 % 1017,0 hPa 0,0 l/m 0,7 km/h N-NO 2,9 C 4,1 C 0,7 km/h
07.02.2010 12:00 5,4 C 89 % 1016,4 hPa 0,0 l/m 0,0 km/h W-NW 3,7 C 5,4 C 0,0 km/h
07.02.2010 13:00 5,6 C 89 % 1016,2 hPa 0,0 l/m 0,0 km/h NW 3,9 C 5,6 C 0,0 km/h
07.02.2010 14:00 5,1 C 89 % 1015,7 hPa 0,0 l/m 0,0 km/h O-NO 3,4 C 5,1 C 0,0 km/h
07.02.2010 15:00 5,9 C 81 % 1015,4 hPa 0,0 l/m 0,0 km/h O-NO 2,9 C 5,9 C 0,0 km/h
07.02.2010 16:00 5,1 C 82 % 1015,1 hPa 0,0 l/m 0,0 km/h NO 2,3 C 5,1 C 0,0 km/h
07.02.2010 17:00 3,4 C 84 % 1015,2 hPa 0,0 l/m 0,0 km/h O 1,0 C 3,4 C 0,0 km/h
07.02.2010 18:00 1,9 C 88 % 1015,0 hPa 0,0 l/m 0,0 km/h O-NO 0,1 C 1,9 C 0,0 km/h
07.02.2010 19:00 1,0 C 90 % 1014,8 hPa 0,0 l/m 5,4 km/h O-SO -0,5 C 1,0 C 5,4 km/h
07.02.2010 20:00 0,3 C 91 % 1014,5 hPa 0,0 l/m 0,0 km/h O-NO -1,0 C 0,3 C 0,0 km/h
07.02.2010 21:00 -0,7 C 92 % 1013,9 hPa 0,0 l/m 0,0 km/h O-NO -1,8 C -0,7 C 0,0 km/h
07.02.2010 22:00 -1,3 C 93 % 1013,4 hPa 0,0 l/m 0,0 km/h O-SO -2,3 C -1,3 C 0,0 km/h
07.02.2010 23:00 -2,0 C 93 % 1013,0 hPa 0,0 l/m 0,0 km/h N-NO -3,0 C -2,0 C 0,0 km/h
Min-Datum _ 01.02.10 04.02.10 05.02.10 - 01.02.10 - 01.02.10 01.02.10 01.02.10
_ Min-Zeit 06:53 14:53 12:53 - 00:53 - 13:53 16:53 00:53
Minimum _ -4,6 C 59 % 1005,4 hPa - 0,0 km/h - -5,6 C -14,4 C 0,0 km/h
Max-Datum _ 04.02.10 06.02.10 02.02.10 05.02.10 03.02.10 - 06.02.10 04.02.10 03.02.10
_ Max-Zeit 14:53 03:53 03:53 18:53 06:53 - 12:53 14:53 06:53
Maximum _ 13,1 C 95 % 1019,0 hPa 1,1 l/m 40,0 km/h
SW
- 6,9 C 13,1 C 40,0 km/h
SW
Durchschnitt _ 3,0 C 85 % 1012,3 hPa #7,5 l/m 7,5 km/h SW 0,7 C -0,1 C 7,5 km/h